KFHU/FHU METAR and TAF weather

Enter ICAO airport designator
Station Type Date Time Source
KFHU METAR 2022/10/01 05:55 UTC NOAA

KFHU 010555Z 17004KT 9SM CLR 15/15 A3005 RMK AO2A SLPNO 60017 T01520147 10188 20150 53003 $


Station Type Date Time Source
KFHU Decoded METAR 2022/10/01 05:55 UTC NOAA

Fort Huachuca, Libby AAF Ft Huachuca, AZ, United States (KFHU) 46-98N 110-20W
Oct 01, 2022 - 01:55 AM EDT / 2022.10.01 0555 UTC
Wind: from the S (170 degrees) at 5 MPH (4 KT):0
Visibility: 9 mile(s):0
Sky conditions: clear
Temperature: 59.4 F (15.2 C)
Dew Point: 58.5 F (14.7 C)
Relative Humidity: 96%
Pressure (altimeter): 30.05 in. Hg (1017 hPa)
Pressure tendency: 0.01 inches (0.3 hPa) higher than three hours ago
ob: KFHU 010555Z 17004KT 9SM CLR 15/15 A3005 RMK AO2A SLPNO 60017 T01520147 10188 20150 53003
cycle: 6

Station Type Date Time Source
KFHU TAF 2022/09/30 22:45 UTC NOAA

TAF COR KFHU 300325Z 2922/0104 09010G15KT 9999 BKN060 BKN190 621003 510005 QNH3013INS
TEMPO 2922/2924 11012G20KT 520005
BECMG 2923/2924 11010G15KT 9999 BKN055 OVC100 621004 510004 QNH3013INS
TEMPO 3001/3003 VCTS BKN055CB
BECMG 3002/3003 13009KT 9999 BKN090 BKN230 621005 QNH3014INS
BECMG 3008/3009 14006KT 9999 FEW055 SCT100 BKN230 QNH3012INS
BECMG 3013/3014 15009KT 9999 FEW055 SCT220 QNH3007INS
BECMG 3018/3019 14009KT 9999 VCTS BKN065CB QNH3004INS
BECMG 3019/3020 15009KT 9999 -TSRA BKN055CB QNH3001INS
TEMPO 3020/0103 VRB24G36KT 6000 TSRA OVC055CB TX27/3020Z TN16/3012Z

Example: see airport list